createdAt,value
2019-01-27T00:00:36.920Z,992.33
2019-01-27T00:01:36.832Z,992.32
2019-01-27T00:02:36.747Z,992.25
2019-01-27T00:03:36.657Z,992.30
2019-01-27T00:04:36.571Z,992.25
2019-01-27T00:05:36.483Z,992.31
2019-01-27T00:06:36.396Z,992.28
2019-01-27T00:07:36.310Z,992.26
2019-01-27T00:08:36.221Z,992.24
2019-01-27T00:09:36.134Z,992.21
2019-01-27T00:10:36.058Z,992.19
2019-01-27T00:11:35.972Z,992.20
2019-01-27T00:12:35.883Z,992.16
2019-01-27T00:13:35.798Z,992.16
2019-01-27T00:14:35.708Z,992.16
2019-01-27T00:15:35.622Z,992.12
2019-01-27T00:16:35.533Z,992.13
2019-01-27T00:17:35.447Z,992.13
2019-01-27T00:18:35.372Z,992.14
2019-01-27T00:19:35.274Z,992.18
2019-01-27T00:20:35.184Z,992.19
2019-01-27T00:21:35.098Z,992.16
2019-01-27T00:22:35.009Z,992.16
2019-01-27T00:23:34.923Z,992.16
2019-01-27T00:24:34.834Z,992.16
2019-01-27T00:25:34.748Z,992.16
2019-01-27T00:26:34.661Z,992.11
2019-01-27T00:27:34.587Z,992.09
2019-01-27T00:28:34.498Z,992.08
2019-01-27T00:29:34.410Z,992.06
2019-01-27T00:30:34.331Z,992.04
2019-01-27T00:31:34.235Z,991.99
2019-01-27T00:32:34.148Z,991.97
2019-01-27T00:33:34.060Z,991.89
2019-01-27T00:34:33.973Z,991.90
2019-01-27T00:35:33.886Z,991.84
2019-01-27T00:36:33.799Z,991.85
2019-01-27T00:37:33.713Z,991.90
2019-01-27T00:38:33.623Z,991.84
2019-01-27T00:39:33.536Z,991.85
2019-01-27T00:40:33.461Z,991.81
2019-01-27T00:41:33.362Z,991.85
2019-01-27T00:42:33.299Z,991.85
2019-01-27T00:43:33.200Z,991.85
2019-01-27T00:44:33.111Z,991.81
2019-01-27T00:45:33.028Z,991.77
2019-01-27T00:46:32.937Z,991.77
2019-01-27T00:47:32.850Z,991.74
2019-01-27T00:48:32.762Z,991.69
2019-01-27T00:49:32.674Z,991.72
2019-01-27T00:50:32.588Z,991.68
2019-01-27T00:51:32.500Z,991.64
2019-01-27T00:52:32.412Z,991.63
2019-01-27T00:53:32.325Z,991.62
2019-01-27T00:54:32.251Z,991.62
2019-01-27T00:55:32.151Z,991.63
2019-01-27T00:56:32.063Z,991.64
2019-01-27T00:57:31.978Z,991.65
2019-01-27T00:58:31.903Z,991.63
2019-01-27T00:59:31.812Z,991.63
2019-01-27T01:00:31.715Z,991.63
2019-01-27T01:01:31.638Z,991.67
2019-01-27T01:02:31.553Z,991.67
2019-01-27T01:03:31.465Z,991.65
2019-01-27T01:04:31.378Z,991.64
2019-01-27T01:05:31.288Z,991.60
2019-01-27T01:06:31.202Z,991.57
2019-01-27T01:07:31.115Z,991.59
2019-01-27T01:08:31.027Z,991.56
2019-01-27T01:09:30.939Z,991.52
2019-01-27T01:10:30.851Z,991.51
2019-01-27T01:11:30.766Z,991.49
2019-01-27T01:12:30.678Z,991.49
2019-01-27T01:13:30.589Z,991.52
2019-01-27T01:14:30.503Z,991.48
2019-01-27T01:15:30.416Z,991.47
2019-01-27T01:16:30.330Z,991.44
2019-01-27T01:17:30.243Z,991.37
2019-01-27T01:18:30.166Z,991.37
2019-01-27T01:19:30.078Z,991.37
2019-01-27T01:20:29.994Z,991.32
2019-01-27T01:21:29.903Z,991.32
2019-01-27T01:22:29.828Z,991.27
2019-01-27T01:23:29.727Z,991.29
2019-01-27T01:24:29.640Z,991.30
2019-01-27T01:25:29.558Z,991.30
2019-01-27T01:26:29.466Z,991.29
2019-01-27T01:27:29.379Z,991.30
2019-01-27T01:28:29.291Z,991.32
2019-01-27T01:29:29.203Z,991.25
2019-01-27T01:30:29.117Z,991.25
2019-01-27T01:31:29.031Z,991.23
2019-01-27T01:32:28.941Z,991.20
2019-01-27T01:33:28.857Z,991.24
2019-01-27T01:34:28.767Z,991.22
2019-01-27T01:35:28.695Z,991.19
2019-01-27T01:36:28.604Z,991.17
2019-01-27T01:37:28.516Z,991.14
2019-01-27T01:38:28.430Z,991.09
2019-01-27T01:39:28.355Z,991.05
2019-01-27T01:40:28.257Z,991.04
2019-01-27T01:41:28.167Z,990.98
2019-01-27T01:42:28.081Z,990.94
2019-01-27T01:43:27.992Z,990.93
2019-01-27T01:44:27.908Z,990.92
2019-01-27T01:45:27.817Z,990.88
2019-01-27T01:46:27.731Z,990.89
2019-01-27T01:47:27.642Z,990.84
2019-01-27T01:48:27.556Z,990.82
2019-01-27T01:49:27.468Z,990.83
2019-01-27T01:50:27.381Z,990.81
2019-01-27T01:51:27.294Z,990.76
2019-01-27T01:52:27.206Z,990.74
2019-01-27T01:53:27.123Z,990.74
2019-01-27T01:54:27.043Z,990.69
2019-01-27T01:55:26.956Z,990.73
2019-01-27T01:56:26.868Z,990.67
2019-01-27T01:57:26.782Z,990.66
2019-01-27T01:58:26.708Z,990.68
2019-01-27T01:59:26.606Z,990.67
2019-01-27T02:00:26.519Z,990.66
2019-01-27T02:01:26.443Z,990.59
2019-01-27T02:02:26.344Z,990.60
2019-01-27T02:03:26.257Z,990.55
2019-01-27T02:04:26.169Z,990.58
2019-01-27T02:05:26.083Z,990.54
2019-01-27T02:06:25.996Z,990.58
2019-01-27T02:07:25.909Z,990.55
2019-01-27T02:08:25.820Z,990.47
2019-01-27T02:09:25.733Z,990.47
2019-01-27T02:10:25.646Z,990.40
2019-01-27T02:11:25.571Z,990.39
2019-01-27T02:12:25.483Z,990.33
2019-01-27T02:13:25.395Z,990.34
2019-01-27T02:14:25.309Z,990.31
2019-01-27T02:15:25.233Z,990.28
2019-01-27T02:16:25.137Z,990.27
2019-01-27T02:17:25.045Z,990.29
2019-01-27T02:18:24.959Z,990.26
2019-01-27T02:19:24.872Z,990.25
2019-01-27T02:20:24.783Z,990.26
2019-01-27T02:21:24.696Z,990.24
2019-01-27T02:22:24.610Z,990.22
2019-01-27T02:23:24.535Z,990.25
2019-01-27T02:24:24.435Z,990.21
2019-01-27T02:25:24.346Z,990.17
2019-01-27T02:26:24.259Z,990.15
2019-01-27T02:27:24.171Z,990.16
2019-01-27T02:28:24.101Z,990.11
2019-01-27T02:29:23.998Z,990.08
2019-01-27T02:30:23.939Z,990.08
2019-01-27T02:31:23.836Z,990.05
2019-01-27T02:32:23.748Z,990.03
2019-01-27T02:33:23.663Z,989.99
2019-01-27T02:34:23.572Z,990.00
2019-01-27T02:35:23.489Z,989.97
2019-01-27T02:36:23.399Z,989.90
2019-01-27T02:37:23.316Z,989.90
2019-01-27T02:38:23.222Z,989.87
2019-01-27T02:39:23.137Z,989.83
2019-01-27T02:40:23.051Z,989.78
2019-01-27T02:41:22.962Z,989.78
2019-01-27T02:42:22.886Z,989.70
2019-01-27T02:43:22.789Z,989.71
2019-01-27T02:44:22.699Z,989.71
2019-01-27T02:45:22.613Z,989.73
2019-01-27T02:46:22.528Z,989.67
2019-01-27T02:47:22.437Z,989.65
2019-01-27T02:48:22.350Z,989.64
2019-01-27T02:49:22.262Z,989.60
2019-01-27T02:50:22.176Z,989.58
2019-01-27T02:51:22.099Z,989.50
2019-01-27T02:52:22.016Z,989.47
2019-01-27T02:53:21.923Z,989.45
2019-01-27T02:54:21.838Z,989.44
2019-01-27T02:55:21.749Z,989.38
2019-01-27T02:56:21.667Z,989.37
2019-01-27T02:57:21.575Z,989.38
2019-01-27T02:58:21.488Z,989.31
2019-01-27T02:59:21.401Z,989.29
2019-01-27T03:00:21.325Z,989.32
2019-01-27T03:01:21.225Z,989.27
2019-01-27T03:02:21.139Z,989.22
2019-01-27T03:03:21.050Z,989.22
2019-01-27T03:04:20.975Z,989.23
2019-01-27T03:05:20.876Z,989.15
2019-01-27T03:06:20.794Z,989.16
2019-01-27T03:07:20.708Z,989.09
2019-01-27T03:08:20.615Z,989.12
2019-01-27T03:09:20.526Z,989.12
2019-01-27T03:10:20.441Z,989.08
2019-01-27T03:11:20.355Z,989.11
2019-01-27T03:12:20.269Z,989.06
2019-01-27T03:13:20.179Z,989.02
2019-01-27T03:14:20.101Z,989.00
2019-01-27T03:15:20.018Z,989.00
2019-01-27T03:16:19.934Z,988.99
2019-01-27T03:17:19.840Z,988.96
2019-01-27T03:18:19.754Z,988.98
2019-01-27T03:19:19.665Z,988.98
2019-01-27T03:20:19.579Z,988.99
2019-01-27T03:21:19.491Z,988.98
2019-01-27T03:22:19.406Z,988.99
2019-01-27T03:23:19.315Z,988.99
2019-01-27T03:24:19.238Z,988.99
2019-01-27T03:25:19.141Z,988.94
2019-01-27T03:26:19.069Z,988.97
2019-01-27T03:27:18.968Z,988.91
2019-01-27T03:28:18.877Z,988.87
2019-01-27T03:29:18.798Z,988.88
2019-01-27T03:30:18.796Z,988.85
2019-01-27T03:31:18.623Z,988.86
2019-01-27T03:32:18.529Z,988.86
2019-01-27T03:33:18.445Z,988.79
2019-01-27T03:34:18.354Z,988.80
2019-01-27T03:35:18.267Z,988.83
2019-01-27T03:36:18.182Z,988.77
2019-01-27T03:37:18.093Z,988.77
2019-01-27T03:38:18.003Z,988.81
2019-01-27T03:39:17.929Z,988.74
2019-01-27T03:40:17.832Z,988.71
2019-01-27T03:41:17.755Z,988.70
2019-01-27T03:42:17.657Z,988.65
2019-01-27T03:43:17.593Z,988.68
2019-01-27T03:44:17.499Z,988.65
2019-01-27T03:45:17.406Z,988.66
2019-01-27T03:46:17.318Z,988.61
2019-01-27T03:47:17.234Z,988.61
2019-01-27T03:48:17.144Z,988.60
2019-01-27T03:49:17.054Z,988.59
2019-01-27T03:50:16.970Z,988.58
2019-01-27T03:51:16.881Z,988.57
2019-01-27T03:52:16.799Z,988.55
2019-01-27T03:53:16.705Z,988.51
2019-01-27T03:54:16.620Z,988.49
2019-01-27T03:55:16.544Z,988.46
2019-01-27T03:56:16.444Z,988.50
2019-01-27T03:57:16.356Z,988.42
2019-01-27T03:58:16.277Z,988.39
2019-01-27T03:59:16.182Z,988.34
2019-01-27T04:00:16.094Z,988.35
2019-01-27T04:01:16.006Z,988.32
2019-01-27T04:02:15.920Z,988.32
2019-01-27T04:03:15.844Z,988.31
2019-01-27T04:04:15.747Z,988.24
2019-01-27T04:05:15.660Z,988.31
2019-01-27T04:06:15.573Z,988.24
2019-01-27T04:07:15.483Z,988.23
2019-01-27T04:08:15.395Z,988.16
2019-01-27T04:09:15.308Z,988.20
2019-01-27T04:10:15.232Z,988.14
2019-01-27T04:11:15.145Z,988.13
2019-01-27T04:12:15.059Z,988.12
2019-01-27T04:13:14.971Z,988.12
2019-01-27T04:14:14.883Z,988.07
2019-01-27T04:15:14.798Z,988.08
2019-01-27T04:16:14.711Z,988.05
2019-01-27T04:17:14.621Z,988.04
2019-01-27T04:18:14.537Z,988.05
2019-01-27T04:19:14.447Z,988.01
2019-01-27T04:20:14.360Z,988.01
2019-01-27T04:21:14.276Z,987.96
2019-01-27T04:22:14.183Z,987.94
2019-01-27T04:23:14.098Z,987.95
2019-01-27T04:24:14.008Z,987.99
2019-01-27T04:25:13.922Z,987.99
2019-01-27T04:26:13.834Z,987.95
2019-01-27T04:27:13.749Z,987.92
2019-01-27T04:28:13.680Z,987.89
2019-01-27T04:29:13.574Z,987.89
2019-01-27T04:30:13.484Z,987.89
2019-01-27T04:31:13.413Z,987.87
2019-01-27T04:32:13.309Z,987.83
2019-01-27T04:33:13.223Z,987.84
2019-01-27T04:34:13.135Z,987.81
2019-01-27T04:35:13.047Z,987.81
2019-01-27T04:36:12.959Z,987.79
2019-01-27T04:37:12.873Z,987.81
2019-01-27T04:38:12.785Z,987.83
2019-01-27T04:39:12.700Z,987.75
2019-01-27T04:40:12.626Z,987.76
2019-01-27T04:41:12.524Z,987.69
2019-01-27T04:42:12.438Z,987.69
2019-01-27T04:43:12.352Z,987.77
2019-01-27T04:44:12.264Z,987.75
2019-01-27T04:45:12.175Z,987.71
2019-01-27T04:46:12.087Z,987.71
2019-01-27T04:47:12.018Z,987.68
2019-01-27T04:48:11.924Z,987.59
2019-01-27T04:49:11.841Z,987.60
2019-01-27T04:50:11.750Z,987.59
2019-01-27T04:51:11.663Z,987.55
2019-01-27T04:52:11.575Z,987.57
2019-01-27T04:53:11.487Z,987.54
2019-01-27T04:54:11.400Z,987.54
2019-01-27T04:55:11.311Z,987.53
2019-01-27T04:56:11.224Z,987.55
2019-01-27T04:57:11.152Z,987.54
2019-01-27T04:58:11.053Z,987.53
2019-01-27T04:59:10.962Z,987.49
2019-01-27T05:00:10.875Z,987.50
2019-01-27T05:01:10.788Z,987.44
2019-01-27T05:02:10.701Z,987.47
2019-01-27T05:03:10.612Z,987.44
2019-01-27T05:04:10.526Z,987.46
2019-01-27T05:05:10.438Z,987.42
2019-01-27T05:06:10.351Z,987.43
2019-01-27T05:07:10.267Z,987.40
2019-01-27T05:08:10.175Z,987.42
2019-01-27T05:09:10.088Z,987.44
2019-01-27T05:10:10.001Z,987.41
2019-01-27T05:11:09.916Z,987.37
2019-01-27T05:12:09.827Z,987.31
2019-01-27T05:13:09.744Z,987.30
2019-01-27T05:14:09.652Z,987.32
2019-01-27T05:15:09.564Z,987.26
2019-01-27T05:16:09.479Z,987.22
2019-01-27T05:17:09.402Z,987.18
2019-01-27T05:18:09.315Z,987.20
2019-01-27T05:19:09.230Z,987.16
2019-01-27T05:20:09.142Z,987.13
2019-01-27T05:21:09.053Z,987.16
2019-01-27T05:22:08.964Z,987.17
2019-01-27T05:23:08.878Z,987.16
2019-01-27T05:24:08.793Z,987.10
2019-01-27T05:25:08.707Z,987.10
2019-01-27T05:26:08.614Z,987.09
2019-01-27T05:27:08.529Z,987.08
2019-01-27T05:28:08.440Z,987.12
2019-01-27T05:29:08.355Z,987.13
2019-01-27T05:30:08.266Z,987.12
2019-01-27T05:31:08.178Z,987.10
2019-01-27T05:32:08.097Z,987.05
2019-01-27T05:33:08.005Z,987.06
2019-01-27T05:34:07.929Z,987.05
2019-01-27T05:35:07.829Z,987.01
2019-01-27T05:36:07.741Z,987.02
2019-01-27T05:37:07.655Z,986.96
2019-01-27T05:38:07.566Z,986.94
2019-01-27T05:39:07.480Z,986.90
2019-01-27T05:40:07.391Z,986.92
2019-01-27T05:41:07.305Z,986.89
2019-01-27T05:42:07.221Z,986.89
2019-01-27T05:43:07.130Z,986.89
2019-01-27T05:44:07.043Z,986.86
2019-01-27T05:45:06.967Z,986.87
2019-01-27T05:46:06.880Z,986.87
2019-01-27T05:47:06.794Z,986.83
2019-01-27T05:48:06.713Z,986.84
2019-01-27T05:49:06.617Z,986.86
2019-01-27T05:50:06.532Z,986.84
2019-01-27T05:51:06.442Z,986.84
2019-01-27T05:52:06.356Z,986.81
2019-01-27T05:53:06.269Z,986.81
2019-01-27T05:54:06.180Z,986.76
2019-01-27T05:55:06.093Z,986.77
2019-01-27T05:56:06.006Z,986.78
2019-01-27T05:57:05.921Z,986.78
2019-01-27T05:58:05.836Z,986.74
2019-01-27T05:59:05.745Z,986.80
2019-01-27T06:00:05.656Z,986.74
2019-01-27T06:01:05.569Z,986.72
2019-01-27T06:02:05.482Z,986.73
2019-01-27T06:03:05.417Z,986.70
2019-01-27T06:04:05.309Z,986.71
2019-01-27T06:05:05.218Z,986.66
2019-01-27T06:06:05.137Z,986.64
2019-01-27T06:07:05.044Z,986.64
2019-01-27T06:08:04.959Z,986.62
2019-01-27T06:09:04.871Z,986.60
2019-01-27T06:10:04.789Z,986.56
2019-01-27T06:11:04.696Z,986.54
2019-01-27T06:12:04.609Z,986.52
2019-01-27T06:13:04.521Z,986.59
2019-01-27T06:14:04.445Z,986.52
2019-01-27T06:15:04.358Z,986.47
2019-01-27T06:16:04.270Z,986.45
2019-01-27T06:17:04.184Z,986.44
2019-01-27T06:18:04.095Z,986.46
2019-01-27T06:19:04.009Z,986.42
2019-01-27T06:20:03.931Z,986.43
2019-01-27T06:21:03.835Z,986.40
2019-01-27T06:22:03.748Z,986.43
2019-01-27T06:23:03.661Z,986.34
2019-01-27T06:24:03.572Z,986.34
2019-01-27T06:25:03.485Z,986.36
2019-01-27T06:26:03.400Z,986.36
2019-01-27T06:27:03.310Z,986.33
2019-01-27T06:28:03.222Z,986.36
2019-01-27T06:29:03.134Z,986.35
2019-01-27T06:30:03.046Z,986.32
2019-01-27T06:31:02.961Z,986.31
2019-01-27T06:32:02.873Z,986.29
2019-01-27T06:33:02.785Z,986.28
2019-01-27T06:34:02.699Z,986.27
2019-01-27T06:35:02.612Z,986.24
2019-01-27T06:36:02.523Z,986.27
2019-01-27T06:37:02.438Z,986.27
2019-01-27T06:38:02.393Z,986.23
2019-01-27T06:39:02.273Z,986.21
2019-01-27T06:40:02.175Z,986.22
2019-01-27T06:41:02.097Z,986.23
2019-01-27T06:42:02.013Z,986.20
2019-01-27T06:43:01.927Z,986.18
2019-01-27T06:44:01.862Z,986.18
2019-01-27T06:45:01.748Z,986.19
2019-01-27T06:46:01.661Z,986.15
2019-01-27T06:47:01.573Z,986.16
2019-01-27T06:48:01.488Z,986.14
2019-01-27T06:49:01.398Z,986.10
2019-01-27T06:50:01.311Z,986.06
2019-01-27T06:51:01.223Z,986.07
2019-01-27T06:52:01.137Z,986.08
2019-01-27T06:53:01.049Z,986.08
2019-01-27T06:54:00.962Z,986.13
2019-01-27T06:55:00.874Z,986.10
2019-01-27T06:56:00.787Z,986.08
2019-01-27T06:57:00.713Z,986.08
2019-01-27T06:58:00.613Z,986.06
2019-01-27T06:59:00.526Z,986.02
2019-01-27T07:00:00.439Z,986.00
2019-01-27T07:01:00.397Z,985.98
2019-01-27T07:02:00.284Z,986.01
2019-01-27T07:03:00.188Z,986.00
2019-01-27T07:04:00.109Z,985.97
2019-01-27T07:05:00.013Z,985.91
2019-01-27T07:05:59.926Z,985.89
2019-01-27T07:06:59.839Z,985.90
2019-01-27T07:07:59.762Z,985.90
2019-01-27T07:08:59.663Z,985.89
2019-01-27T07:09:59.575Z,985.90
2019-01-27T07:10:59.492Z,985.89
2019-01-27T07:11:59.401Z,985.89
2019-01-27T07:12:59.314Z,985.88
2019-01-27T07:13:59.228Z,985.85
2019-01-27T07:14:59.141Z,985.89
2019-01-27T07:15:59.051Z,985.87
2019-01-27T07:16:58.965Z,985.83
2019-01-27T07:17:58.876Z,985.82
2019-01-27T07:18:58.794Z,985.84
2019-01-27T07:19:58.701Z,985.83
2019-01-27T07:20:58.615Z,985.84
2019-01-27T07:21:58.527Z,985.81
2019-01-27T07:22:58.452Z,985.80
2019-01-27T07:23:58.352Z,985.84
2019-01-27T07:24:58.271Z,985.86
2019-01-27T07:25:58.193Z,985.82
2019-01-27T07:26:58.102Z,985.82
2019-01-27T07:27:58.015Z,985.80
2019-01-27T07:28:57.928Z,985.76
2019-01-27T07:29:57.840Z,985.73
2019-01-27T07:30:57.753Z,985.72
2019-01-27T07:31:57.666Z,985.69
2019-01-27T07:32:57.590Z,985.67
2019-01-27T07:33:57.491Z,985.68
2019-01-27T07:34:57.403Z,985.67
2019-01-27T07:35:57.318Z,985.62
2019-01-27T07:36:57.228Z,985.59
2019-01-27T07:37:57.142Z,985.59
2019-01-27T07:38:57.054Z,985.59
2019-01-27T07:39:56.966Z,985.59
2019-01-27T07:40:56.878Z,985.63
2019-01-27T07:41:56.792Z,985.61
2019-01-27T07:42:56.704Z,985.59
2019-01-27T07:43:56.618Z,985.56
2019-01-27T07:44:56.541Z,985.57
2019-01-27T07:45:56.454Z,985.55
2019-01-27T07:46:56.377Z,985.52
2019-01-27T07:47:56.285Z,985.55
2019-01-27T07:48:56.192Z,985.56
2019-01-27T07:49:56.104Z,985.52
2019-01-27T07:50:56.017Z,985.53
2019-01-27T07:51:55.931Z,985.47
2019-01-27T07:52:55.843Z,985.49
2019-01-27T07:53:55.755Z,985.46
2019-01-27T07:54:55.671Z,985.44
2019-01-27T07:55:55.580Z,985.49
2019-01-27T07:56:55.493Z,985.45
2019-01-27T07:57:55.405Z,985.45
2019-01-27T07:58:55.318Z,985.40
2019-01-27T07:59:55.231Z,985.37
2019-01-27T08:00:55.159Z,985.44
2019-01-27T08:01:55.070Z,985.41
2019-01-27T08:02:54.998Z,985.44
2019-01-27T08:03:54.894Z,985.50
2019-01-27T08:04:54.806Z,985.45
2019-01-27T08:05:54.722Z,985.40
2019-01-27T08:06:54.631Z,985.40
2019-01-27T08:07:54.545Z,985.35
2019-01-27T08:08:54.456Z,985.38
2019-01-27T08:09:54.369Z,985.35
2019-01-27T08:10:54.285Z,985.37
2019-01-27T08:11:54.196Z,985.34
2019-01-27T08:12:54.109Z,985.35
2019-01-27T08:13:54.031Z,985.38
2019-01-27T08:14:53.934Z,985.34
2019-01-27T08:15:53.870Z,985.32
2019-01-27T08:16:53.771Z,985.28
2019-01-27T08:17:53.683Z,985.32
2019-01-27T08:18:53.598Z,985.27
2019-01-27T08:19:53.507Z,985.21
2019-01-27T08:20:53.420Z,985.26
2019-01-27T08:21:53.332Z,985.26
2019-01-27T08:22:53.260Z,985.23
2019-01-27T08:23:53.158Z,985.26
2019-01-27T08:24:53.071Z,985.25
2019-01-27T08:25:52.983Z,985.20
2019-01-27T08:26:52.910Z,985.21
2019-01-27T08:27:52.821Z,985.18
2019-01-27T08:28:52.721Z,985.17
2019-01-27T08:29:52.635Z,985.15
2019-01-27T08:30:52.558Z,985.15
2019-01-27T08:31:52.472Z,985.14
2019-01-27T08:32:52.383Z,985.20
2019-01-27T08:33:52.300Z,985.18
2019-01-27T08:34:52.210Z,985.16
2019-01-27T08:35:52.122Z,985.16
2019-01-27T08:36:52.033Z,985.20
2019-01-27T08:37:51.948Z,985.19
2019-01-27T08:38:51.859Z,985.18
2019-01-27T08:39:51.773Z,985.20
2019-01-27T08:40:51.684Z,985.16
2019-01-27T08:41:51.598Z,985.21
2019-01-27T08:42:51.523Z,985.17
2019-01-27T08:43:51.435Z,985.15
2019-01-27T08:44:51.351Z,985.14
2019-01-27T08:45:51.261Z,985.16
2019-01-27T08:46:51.174Z,985.15
2019-01-27T08:47:51.085Z,985.14
2019-01-27T08:48:50.998Z,985.14
2019-01-27T08:49:50.924Z,985.12
2019-01-27T08:50:50.832Z,985.15
2019-01-27T08:51:50.736Z,985.14
2019-01-27T08:52:50.656Z,985.14
2019-01-27T08:53:50.562Z,985.13
2019-01-27T08:54:50.486Z,985.14
2019-01-27T08:55:50.403Z,985.17
2019-01-27T08:56:50.324Z,985.13
2019-01-27T08:57:50.228Z,985.14
2019-01-27T08:58:50.137Z,985.11
2019-01-27T08:59:50.056Z,985.10
2019-01-27T09:00:49.963Z,985.11
2019-01-27T09:01:49.879Z,985.08
2019-01-27T09:02:49.786Z,985.03
2019-01-27T09:03:49.701Z,984.99
2019-01-27T09:04:49.613Z,984.96
2019-01-27T09:05:49.536Z,984.95
2019-01-27T09:06:49.451Z,984.99
2019-01-27T09:07:49.364Z,984.98
2019-01-27T09:08:49.276Z,984.95
2019-01-27T09:09:49.191Z,984.96
2019-01-27T09:10:49.101Z,984.89
2019-01-27T09:11:49.013Z,984.92
2019-01-27T09:12:48.925Z,984.86
2019-01-27T09:13:48.837Z,984.87
2019-01-27T09:14:48.765Z,984.84
2019-01-27T09:15:48.675Z,984.81
2019-01-27T09:16:48.588Z,984.80
2019-01-27T09:17:48.502Z,984.84
2019-01-27T09:18:48.413Z,984.81
2019-01-27T09:19:48.326Z,984.76
2019-01-27T09:20:48.239Z,984.76
2019-01-27T09:21:48.152Z,984.77
2019-01-27T09:22:48.077Z,984.75
2019-01-27T09:23:47.990Z,984.75
2019-01-27T09:24:47.902Z,984.70
2019-01-27T09:25:47.814Z,984.66
2019-01-27T09:26:47.729Z,984.69
2019-01-27T09:27:47.653Z,984.71
2019-01-27T09:28:47.564Z,984.68
2019-01-27T09:29:47.477Z,984.70
2019-01-27T09:30:47.393Z,984.69
2019-01-27T09:31:47.303Z,984.67
2019-01-27T09:32:47.214Z,984.62
2019-01-27T09:33:47.140Z,984.65
2019-01-27T09:34:47.053Z,984.65
2019-01-27T09:35:46.965Z,984.63
2019-01-27T09:36:46.882Z,984.58
2019-01-27T09:37:46.803Z,984.62
2019-01-27T09:38:46.704Z,984.63
2019-01-27T09:39:46.633Z,984.64
2019-01-27T09:40:46.540Z,984.61
2019-01-27T09:41:46.455Z,984.61
2019-01-27T09:42:46.365Z,984.61
2019-01-27T09:43:46.279Z,984.61
2019-01-27T09:44:46.192Z,984.62
2019-01-27T09:45:57.562Z,984.63
2019-01-27T09:46:46.029Z,984.60
2019-01-27T09:47:45.941Z,984.53
2019-01-27T09:48:45.854Z,984.58
2019-01-27T09:49:45.768Z,984.61
2019-01-27T09:50:45.692Z,984.58
2019-01-27T09:51:45.606Z,984.61
2019-01-27T09:52:45.529Z,984.59
2019-01-27T09:53:45.433Z,984.49
2019-01-27T09:54:45.343Z,984.55
2019-01-27T09:55:45.256Z,984.55
2019-01-27T09:56:45.179Z,984.56
2019-01-27T09:57:45.092Z,984.54
2019-01-27T09:58:45.006Z,984.49
2019-01-27T09:59:44.919Z,984.50
2019-01-27T10:00:44.833Z,984.54
2019-01-27T10:01:44.757Z,984.52
2019-01-27T10:02:44.667Z,984.50
2019-01-27T10:03:44.582Z,984.52
2019-01-27T10:04:44.493Z,984.49
2019-01-27T10:05:44.410Z,984.48
2019-01-27T10:06:44.319Z,984.48
2019-01-27T10:07:44.244Z,984.46
2019-01-27T10:08:44.156Z,984.43
2019-01-27T10:09:44.082Z,984.44
2019-01-27T10:10:43.982Z,984.45
2019-01-27T10:11:43.893Z,984.43
2019-01-27T10:12:43.819Z,984.42
2019-01-27T10:13:43.731Z,984.38
2019-01-27T10:14:43.643Z,984.40
2019-01-27T10:15:43.557Z,984.38
2019-01-27T10:16:43.481Z,984.40
2019-01-27T10:17:43.394Z,984.34
2019-01-27T10:18:43.307Z,984.32
2019-01-27T10:19:43.219Z,984.31
2019-01-27T10:20:43.132Z,984.32
2019-01-27T10:21:43.044Z,984.31
2019-01-27T10:22:42.970Z,984.29
2019-01-27T10:23:42.882Z,984.26
2019-01-27T10:24:42.794Z,984.25
2019-01-27T10:25:42.708Z,984.25
2019-01-27T10:26:42.622Z,984.24
2019-01-27T10:27:42.545Z,984.21
2019-01-27T10:28:42.464Z,984.21
2019-01-27T10:29:42.370Z,984.24
2019-01-27T10:30:42.286Z,984.21
2019-01-27T10:31:42.209Z,984.26
2019-01-27T10:32:42.121Z,984.22
2019-01-27T10:33:42.033Z,984.24
2019-01-27T10:34:41.946Z,984.22
2019-01-27T10:35:42.967Z,984.20
2019-01-27T10:36:41.786Z,984.22
2019-01-27T10:37:41.696Z,984.19
2019-01-27T10:38:41.610Z,984.18
2019-01-27T10:39:41.521Z,984.17
2019-01-27T10:40:41.448Z,984.08
2019-01-27T10:41:41.360Z,984.15
2019-01-27T10:42:41.271Z,984.16
2019-01-27T10:43:41.189Z,984.16
2019-01-27T10:44:41.109Z,984.14
2019-01-27T10:45:41.022Z,984.13
2019-01-27T10:46:40.935Z,984.11
2019-01-27T10:47:40.860Z,984.09
2019-01-27T10:48:40.760Z,983.88
2019-01-27T10:49:40.688Z,984.05
2019-01-27T10:50:40.600Z,984.05
2019-01-27T10:51:40.511Z,984.04
2019-01-27T10:52:40.422Z,984.03
2019-01-27T10:53:40.353Z,983.98
2019-01-27T10:54:40.262Z,984.02
2019-01-27T10:55:40.176Z,984.01
2019-01-27T10:56:40.086Z,983.99
2019-01-27T10:57:39.999Z,983.94
2019-01-27T10:58:39.936Z,983.92
2019-01-27T10:59:39.836Z,983.92
2019-01-27T11:00:39.748Z,983.85
2019-01-27T11:01:39.662Z,983.86
2019-01-27T11:02:39.586Z,983.83
2019-01-27T11:03:40.319Z,983.83
2019-01-27T11:04:39.411Z,983.87
2019-01-27T11:05:39.324Z,983.88
2019-01-27T11:06:39.236Z,983.84
2019-01-27T11:07:39.148Z,983.79
2019-01-27T11:08:39.063Z,983.84
2019-01-27T11:09:38.974Z,983.88
2019-01-27T11:10:38.899Z,983.81
2019-01-27T11:11:38.813Z,983.80
2019-01-27T11:12:38.724Z,983.78
2019-01-27T11:13:38.637Z,983.83
2019-01-27T11:14:38.549Z,983.84
2019-01-27T11:15:38.463Z,983.79
2019-01-27T11:16:38.375Z,983.80
2019-01-27T11:17:38.300Z,983.77
2019-01-27T11:18:38.214Z,983.75
2019-01-27T11:19:38.139Z,983.72
2019-01-27T11:20:40.093Z,983.66
2019-01-27T11:21:37.950Z,983.63
2019-01-27T11:22:37.869Z,983.65
2019-01-27T11:23:37.776Z,983.63
2019-01-27T11:24:37.700Z,983.62
2019-01-27T11:25:37.614Z,983.60
2019-01-27T11:26:37.528Z,983.56
2019-01-27T11:27:37.440Z,983.59
2019-01-27T11:28:37.351Z,983.58
2019-01-27T11:29:37.265Z,983.59
2019-01-27T11:30:37.189Z,983.53
2019-01-27T11:31:37.101Z,983.53
2019-01-27T11:32:37.015Z,983.47
2019-01-27T11:33:36.927Z,983.50
2019-01-27T11:34:36.840Z,983.44
2019-01-27T11:35:36.764Z,983.47
2019-01-27T11:36:36.677Z,983.37
2019-01-27T11:37:36.593Z,983.42
2019-01-27T11:38:36.503Z,983.38
2019-01-27T11:39:36.415Z,983.36
2019-01-27T11:40:36.327Z,983.27
2019-01-27T11:41:36.240Z,983.32
2019-01-27T11:42:36.166Z,983.25
2019-01-27T11:43:36.077Z,983.26
2019-01-27T11:44:35.991Z,983.23
2019-01-27T11:45:35.902Z,983.21
2019-01-27T11:46:35.815Z,983.19
2019-01-27T11:47:35.728Z,983.19
2019-01-27T11:48:35.668Z,983.21
2019-01-27T11:49:35.566Z,983.22
2019-01-27T11:50:35.478Z,983.29
2019-01-27T11:51:35.393Z,983.26
2019-01-27T11:52:35.304Z,983.26
2019-01-27T11:53:35.228Z,983.24
2019-01-27T11:54:35.142Z,983.19
2019-01-27T11:55:35.054Z,983.15
2019-01-27T11:56:34.966Z,983.19
2019-01-27T11:57:34.878Z,983.16
2019-01-27T11:58:34.803Z,983.11
2019-01-27T11:59:34.720Z,983.15
2019-01-27T12:00:34.629Z,983.14
2019-01-27T12:01:34.543Z,983.15
2019-01-27T12:02:34.469Z,983.12
2019-01-27T12:03:34.368Z,983.13
2019-01-27T12:04:34.280Z,983.05
2019-01-27T12:05:34.204Z,983.01
2019-01-27T12:06:34.117Z,982.96
2019-01-27T12:07:34.029Z,982.95
2019-01-27T12:08:33.943Z,982.95
2019-01-27T12:09:33.854Z,982.98
2019-01-27T12:10:33.779Z,982.96
2019-01-27T12:11:33.693Z,982.97
2019-01-27T12:12:33.606Z,982.95
2019-01-27T12:13:33.518Z,982.96
2019-01-27T12:14:33.430Z,982.94
2019-01-27T12:15:33.347Z,982.90
2019-01-27T12:16:33.256Z,982.93
2019-01-27T12:17:33.181Z,982.92
2019-01-27T12:18:33.094Z,982.90
2019-01-27T12:19:33.007Z,982.94
2019-01-27T12:20:32.919Z,982.89
2019-01-27T12:21:32.831Z,982.89
2019-01-27T12:22:32.744Z,982.88
2019-01-27T12:23:32.660Z,982.88
2019-01-27T12:24:32.581Z,982.90
2019-01-27T12:25:32.497Z,982.92
2019-01-27T12:26:32.407Z,982.93
2019-01-27T12:27:32.320Z,982.90